sensor_id;sensor_type;location;lat;lon;timestamp;pressure;altitude;pressure_sealevel;temperature;humidity
20930;BME280;21895;47.072;15.132;2023-08-08T00:00:51;96888.00;;;11.90;75.24
20930;BME280;21895;47.072;15.132;2023-08-08T00:03:18;96898.00;;;11.76;75.49
20930;BME280;21895;47.072;15.132;2023-08-08T00:05:44;96895.00;;;11.62;76.34
20930;BME280;21895;47.072;15.132;2023-08-08T00:08:11;96894.00;;;11.65;76.87
20930;BME280;21895;47.072;15.132;2023-08-08T00:10:37;96894.00;;;11.74;76.67
20930;BME280;21895;47.072;15.132;2023-08-08T00:13:04;96889.00;;;11.74;76.93
20930;BME280;21895;47.072;15.132;2023-08-08T00:15:31;96896.00;;;11.68;76.68
20930;BME280;21895;47.072;15.132;2023-08-08T00:17:57;96894.00;;;11.67;76.60
20930;BME280;21895;47.072;15.132;2023-08-08T00:20:24;96889.00;;;11.72;77.28
20930;BME280;21895;47.072;15.132;2023-08-08T00:22:50;96895.00;;;11.81;77.41
20930;BME280;21895;47.072;15.132;2023-08-08T00:25:17;96892.00;;;11.89;77.70
20930;BME280;21895;47.072;15.132;2023-08-08T00:27:44;96890.00;;;11.88;77.38
20930;BME280;21895;47.072;15.132;2023-08-08T00:30:12;96896.00;;;11.85;76.64
20930;BME280;21895;47.072;15.132;2023-08-08T00:32:41;96895.00;;;11.77;76.22
20930;BME280;21895;47.072;15.132;2023-08-08T00:35:08;96897.00;;;11.72;76.63
20930;BME280;21895;47.072;15.132;2023-08-08T00:37:35;96897.00;;;11.75;77.44
20930;BME280;21895;47.072;15.132;2023-08-08T00:40:02;96900.00;;;11.72;77.87
20930;BME280;21895;47.072;15.132;2023-08-08T00:42:28;96894.00;;;11.72;77.52
20930;BME280;21895;47.072;15.132;2023-08-08T00:44:55;96900.00;;;11.64;77.97
20930;BME280;21895;47.072;15.132;2023-08-08T00:47:28;96891.00;;;11.68;77.80
20930;BME280;21895;47.072;15.132;2023-08-08T00:49:55;96896.00;;;11.97;76.57
20930;BME280;21895;47.072;15.132;2023-08-08T00:52:22;96898.00;;;12.06;75.40
20930;BME280;21895;47.072;15.132;2023-08-08T00:54:49;96895.00;;;12.01;76.60
20930;BME280;21895;47.072;15.132;2023-08-08T00:57:16;96893.00;;;11.97;76.24
20930;BME280;21895;47.072;15.132;2023-08-08T00:59:42;96879.00;;;11.77;76.24
20930;BME280;21895;47.072;15.132;2023-08-08T01:02:09;96889.00;;;11.64;77.33
20930;BME280;21895;47.072;15.132;2023-08-08T01:04:35;96886.00;;;11.50;78.11
20930;BME280;21895;47.072;15.132;2023-08-08T01:07:47;96890.00;;;11.43;79.35
20930;BME280;21895;47.072;15.132;2023-08-08T01:10:27;96897.00;;;11.52;78.27
20930;BME280;21895;47.072;15.132;2023-08-08T01:13:00;96893.00;;;11.49;78.23
20930;BME280;21895;47.072;15.132;2023-08-08T01:15:30;96900.00;;;11.49;78.24
20930;BME280;21895;47.072;15.132;2023-08-08T01:18:04;96893.00;;;11.55;77.49
20930;BME280;21895;47.072;15.132;2023-08-08T01:20:32;96910.00;;;11.57;77.45
20930;BME280;21895;47.072;15.132;2023-08-08T01:24:23;96911.00;;;11.58;77.71
20930;BME280;21895;47.072;15.132;2023-08-08T01:26:52;96911.00;;;11.42;77.42
20930;BME280;21895;47.072;15.132;2023-08-08T01:29:19;96916.00;;;11.61;76.60
20930;BME280;21895;47.072;15.132;2023-08-08T01:31:46;96919.00;;;11.66;76.82
20930;BME280;21895;47.072;15.132;2023-08-08T01:34:12;96921.00;;;11.67;75.80
20930;BME280;21895;47.072;15.132;2023-08-08T01:37:03;96919.00;;;11.49;75.42
20930;BME280;21895;47.072;15.132;2023-08-08T01:39:34;96915.00;;;11.23;76.63
20930;BME280;21895;47.072;15.132;2023-08-08T01:42:01;96917.00;;;11.03;77.95
20930;BME280;21895;47.072;15.132;2023-08-08T01:44:29;96917.00;;;11.09;78.21
20930;BME280;21895;47.072;15.132;2023-08-08T01:46:57;96911.00;;;11.10;79.33
20930;BME280;21895;47.072;15.132;2023-08-08T01:49:23;96912.00;;;11.21;78.27
20930;BME280;21895;47.072;15.132;2023-08-08T01:51:50;96912.00;;;11.08;78.19
20930;BME280;21895;47.072;15.132;2023-08-08T01:54:19;96916.00;;;10.97;77.62
20930;BME280;21895;47.072;15.132;2023-08-08T01:56:46;96913.00;;;10.79;78.20
20930;BME280;21895;47.072;15.132;2023-08-08T01:59:12;96916.00;;;10.77;78.00
20930;BME280;21895;47.072;15.132;2023-08-08T02:01:42;96915.00;;;10.61;78.47
20930;BME280;21895;47.072;15.132;2023-08-08T02:04:08;96909.00;;;10.53;79.52
20930;BME280;21895;47.072;15.132;2023-08-08T02:06:35;96920.00;;;10.66;79.95
20930;BME280;21895;47.072;15.132;2023-08-08T02:09:02;96910.00;;;10.53;80.48
20930;BME280;21895;47.072;15.132;2023-08-08T02:11:28;96907.00;;;10.63;80.29
20930;BME280;21895;47.072;15.132;2023-08-08T02:13:55;96906.00;;;10.56;79.79
20930;BME280;21895;47.072;15.132;2023-08-08T02:16:21;96916.00;;;10.61;79.22
20930;BME280;21895;47.072;15.132;2023-08-08T02:18:48;96913.00;;;10.55;78.80
20930;BME280;21895;47.072;15.132;2023-08-08T02:21:17;96918.00;;;10.47;78.86
20930;BME280;21895;47.072;15.132;2023-08-08T02:23:43;96918.00;;;10.50;79.12
20930;BME280;21895;47.072;15.132;2023-08-08T02:26:10;96917.00;;;10.52;78.74
20930;BME280;21895;47.072;15.132;2023-08-08T02:28:37;96923.00;;;10.50;78.17
20930;BME280;21895;47.072;15.132;2023-08-08T02:31:03;96924.00;;;10.30;80.07
20930;BME280;21895;47.072;15.132;2023-08-08T02:33:30;96928.00;;;10.44;80.29
20930;BME280;21895;47.072;15.132;2023-08-08T02:35:56;96926.00;;;10.50;80.44
20930;BME280;21895;47.072;15.132;2023-08-08T02:38:23;96916.00;;;10.47;79.49
20930;BME280;21895;47.072;15.132;2023-08-08T02:40:50;96925.00;;;10.46;79.70
20930;BME280;21895;47.072;15.132;2023-08-08T02:43:16;96924.00;;;10.49;78.72
20930;BME280;21895;47.072;15.132;2023-08-08T02:45:43;96921.00;;;10.34;79.03
20930;BME280;21895;47.072;15.132;2023-08-08T02:48:09;96922.00;;;10.17;79.49
20930;BME280;21895;47.072;15.132;2023-08-08T02:50:36;96927.00;;;10.15;79.61
20930;BME280;21895;47.072;15.132;2023-08-08T02:53:03;96927.00;;;10.07;78.97
20930;BME280;21895;47.072;15.132;2023-08-08T02:55:32;96933.00;;;9.96;79.54
20930;BME280;21895;47.072;15.132;2023-08-08T02:57:58;96929.00;;;9.88;80.62
20930;BME280;21895;47.072;15.132;2023-08-08T03:00:25;96932.00;;;9.93;80.24
20930;BME280;21895;47.072;15.132;2023-08-08T03:02:52;96929.00;;;10.40;80.10
20930;BME280;21895;47.072;15.132;2023-08-08T03:05:19;96923.00;;;10.54;79.50
20930;BME280;21895;47.072;15.132;2023-08-08T03:07:45;96932.00;;;10.42;78.45
20930;BME280;21895;47.072;15.132;2023-08-08T03:10:12;96925.00;;;10.32;78.34
20930;BME280;21895;47.072;15.132;2023-08-08T03:12:39;96933.00;;;10.48;79.06
20930;BME280;21895;47.072;15.132;2023-08-08T03:15:08;96936.00;;;10.56;79.20
20930;BME280;21895;47.072;15.132;2023-08-08T03:17:35;96934.00;;;10.56;77.76
20930;BME280;21895;47.072;15.132;2023-08-08T03:20:02;96932.00;;;10.37;78.21
20930;BME280;21895;47.072;15.132;2023-08-08T03:22:31;96932.00;;;10.30;79.11
20930;BME280;21895;47.072;15.132;2023-08-08T03:25:01;96932.00;;;10.37;79.57
20930;BME280;21895;47.072;15.132;2023-08-08T03:27:27;96925.00;;;10.42;78.88
20930;BME280;21895;47.072;15.132;2023-08-08T03:29:54;96929.00;;;10.25;77.43
20930;BME280;21895;47.072;15.132;2023-08-08T03:32:20;96933.00;;;10.21;77.19
20930;BME280;21895;47.072;15.132;2023-08-08T03:34:47;96938.00;;;9.97;77.48
20930;BME280;21895;47.072;15.132;2023-08-08T03:37:16;96943.00;;;9.77;78.95
20930;BME280;21895;47.072;15.132;2023-08-08T03:39:42;96940.00;;;9.85;79.92
20930;BME280;21895;47.072;15.132;2023-08-08T03:42:09;96943.00;;;9.84;80.27
20930;BME280;21895;47.072;15.132;2023-08-08T03:44:35;96936.00;;;10.03;79.76
20930;BME280;21895;47.072;15.132;2023-08-08T03:47:02;96941.00;;;9.83;79.14
20930;BME280;21895;47.072;15.132;2023-08-08T03:49:45;96938.00;;;9.97;79.79
20930;BME280;21895;47.072;15.132;2023-08-08T03:52:12;96941.00;;;9.99;78.34
20930;BME280;21895;47.072;15.132;2023-08-08T03:54:39;96944.00;;;9.84;77.36
20930;BME280;21895;47.072;15.132;2023-08-08T03:57:06;96941.00;;;10.06;78.94
20930;BME280;21895;47.072;15.132;2023-08-08T03:59:33;96949.00;;;10.21;79.42
20930;BME280;21895;47.072;15.132;2023-08-08T04:01:59;96949.00;;;10.19;80.35
20930;BME280;21895;47.072;15.132;2023-08-08T04:04:26;96952.00;;;10.36;79.65
20930;BME280;21895;47.072;15.132;2023-08-08T04:06:53;96952.00;;;10.35;78.85
20930;BME280;21895;47.072;15.132;2023-08-08T04:09:20;96962.00;;;10.36;78.67
20930;BME280;21895;47.072;15.132;2023-08-08T04:11:47;96967.00;;;10.49;78.47
20930;BME280;21895;47.072;15.132;2023-08-08T04:14:13;96961.00;;;10.58;78.14
20930;BME280;21895;47.072;15.132;2023-08-08T04:16:40;96970.00;;;10.64;77.68
20930;BME280;21895;47.072;15.132;2023-08-08T04:19:07;96972.00;;;10.65;77.48
20930;BME280;21895;47.072;15.132;2023-08-08T04:21:33;96967.00;;;10.70;75.86
20930;BME280;21895;47.072;15.132;2023-08-08T04:24:00;96973.00;;;10.63;75.32
20930;BME280;21895;47.072;15.132;2023-08-08T04:26:26;96975.00;;;10.36;74.70
20930;BME280;21895;47.072;15.132;2023-08-08T04:28:53;96979.00;;;10.14;75.32
20930;BME280;21895;47.072;15.132;2023-08-08T04:31:22;96977.00;;;10.08;76.39
20930;BME280;21895;47.072;15.132;2023-08-08T04:33:52;96974.00;;;9.98;76.90
20930;BME280;21895;47.072;15.132;2023-08-08T04:36:25;96981.00;;;10.08;77.99
20930;BME280;21895;47.072;15.132;2023-08-08T04:38:51;96987.00;;;10.14;79.24
20930;BME280;21895;47.072;15.132;2023-08-08T04:41:18;96979.00;;;10.23;79.55
20930;BME280;21895;47.072;15.132;2023-08-08T04:43:44;96982.00;;;10.48;79.41
20930;BME280;21895;47.072;15.132;2023-08-08T04:46:11;96988.00;;;10.57;78.53
20930;BME280;21895;47.072;15.132;2023-08-08T04:48:38;96996.00;;;10.64;78.01
20930;BME280;21895;47.072;15.132;2023-08-08T04:51:06;96992.00;;;10.44;78.29
20930;BME280;21895;47.072;15.132;2023-08-08T04:53:36;97000.00;;;10.53;78.79
20930;BME280;21895;47.072;15.132;2023-08-08T04:56:03;97001.00;;;10.60;78.43
20930;BME280;21895;47.072;15.132;2023-08-08T04:58:29;96999.00;;;10.67;79.02
20930;BME280;21895;47.072;15.132;2023-08-08T05:00:56;97002.00;;;10.82;78.68
20930;BME280;21895;47.072;15.132;2023-08-08T05:03:23;97004.00;;;11.10;77.48
20930;BME280;21895;47.072;15.132;2023-08-08T05:05:49;97015.00;;;11.22;76.87
20930;BME280;21895;47.072;15.132;2023-08-08T05:08:19;97007.00;;;11.50;75.83
20930;BME280;21895;47.072;15.132;2023-08-08T05:10:46;97013.00;;;11.76;74.43
20930;BME280;21895;47.072;15.132;2023-08-08T05:13:13;97013.00;;;11.88;73.36
20930;BME280;21895;47.072;15.132;2023-08-08T05:15:40;97015.00;;;11.98;73.93
20930;BME280;21895;47.072;15.132;2023-08-08T05:18:06;97012.00;;;11.92;74.55
20930;BME280;21895;47.072;15.132;2023-08-08T05:20:33;97015.00;;;12.01;74.12
20930;BME280;21895;47.072;15.132;2023-08-08T05:22:59;97009.00;;;12.19;74.41
20930;BME280;21895;47.072;15.132;2023-08-08T05:25:26;97014.00;;;12.22;74.43
20930;BME280;21895;47.072;15.132;2023-08-08T05:27:53;97016.00;;;12.62;75.05
20930;BME280;21895;47.072;15.132;2023-08-08T05:30:21;97021.00;;;13.14;73.79
20930;BME280;21895;47.072;15.132;2023-08-08T05:32:48;97024.00;;;13.71;70.37
20930;BME280;21895;47.072;15.132;2023-08-08T05:35:15;97024.00;;;14.20;68.24
20930;BME280;21895;47.072;15.132;2023-08-08T05:37:41;97016.00;;;14.53;66.90
20930;BME280;21895;47.072;15.132;2023-08-08T05:40:08;97021.00;;;15.12;67.54
20930;BME280;21895;47.072;15.132;2023-08-08T05:42:38;97009.00;;;15.39;65.78
20930;BME280;21895;47.072;15.132;2023-08-08T05:45:06;97016.00;;;15.68;64.40
20930;BME280;21895;47.072;15.132;2023-08-08T05:47:33;97015.00;;;15.78;63.15
20930;BME280;21895;47.072;15.132;2023-08-08T05:49:59;97017.00;;;16.01;62.23
20930;BME280;21895;47.072;15.132;2023-08-08T05:52:26;97015.00;;;16.27;61.76
20930;BME280;21895;47.072;15.132;2023-08-08T05:54:53;97011.00;;;16.55;61.28
20930;BME280;21895;47.072;15.132;2023-08-08T05:57:19;97018.00;;;16.62;60.93
20930;BME280;21895;47.072;15.132;2023-08-08T05:59:48;97011.00;;;16.85;59.92
20930;BME280;21895;47.072;15.132;2023-08-08T06:02:15;97004.00;;;17.28;60.04
20930;BME280;21895;47.072;15.132;2023-08-08T06:04:42;97008.00;;;17.36;57.87
20930;BME280;21895;47.072;15.132;2023-08-08T06:07:08;97001.00;;;17.52;56.54
20930;BME280;21895;47.072;15.132;2023-08-08T06:09:36;97010.00;;;17.44;59.32
20930;BME280;21895;47.072;15.132;2023-08-08T06:12:04;97001.00;;;17.55;56.28
20930;BME280;21895;47.072;15.132;2023-08-08T06:14:31;97009.00;;;17.74;53.39
20930;BME280;21895;47.072;15.132;2023-08-08T06:16:58;97009.00;;;17.82;53.43
20930;BME280;21895;47.072;15.132;2023-08-08T06:19:24;97016.00;;;17.83;56.82
20930;BME280;21895;47.072;15.132;2023-08-08T06:21:51;97013.00;;;17.98;58.03
20930;BME280;21895;47.072;15.132;2023-08-08T06:24:17;97010.00;;;18.21;56.97
20930;BME280;21895;47.072;15.132;2023-08-08T06:26:44;97002.00;;;18.26;55.45
20930;BME280;21895;47.072;15.132;2023-08-08T06:29:11;97009.00;;;18.54;55.09
20930;BME280;21895;47.072;15.132;2023-08-08T06:31:38;97009.00;;;18.74;54.82
20930;BME280;21895;47.072;15.132;2023-08-08T06:34:05;97008.00;;;18.89;54.33
20930;BME280;21895;47.072;15.132;2023-08-08T06:36:32;97004.00;;;19.12;52.14
20930;BME280;21895;47.072;15.132;2023-08-08T06:38:58;97007.00;;;19.38;50.58
20930;BME280;21895;47.072;15.132;2023-08-08T06:41:25;97005.00;;;19.64;49.63
20930;BME280;21895;47.072;15.132;2023-08-08T06:43:51;97009.00;;;19.72;52.16
20930;BME280;21895;47.072;15.132;2023-08-08T06:46:18;97008.00;;;19.50;51.82
20930;BME280;21895;47.072;15.132;2023-08-08T06:48:47;97010.00;;;19.43;51.72
20930;BME280;21895;47.072;15.132;2023-08-08T06:51:14;97015.00;;;19.65;51.04
20930;BME280;21895;47.072;15.132;2023-08-08T06:53:40;97008.00;;;19.62;51.17
20930;BME280;21895;47.072;15.132;2023-08-08T06:56:07;97009.00;;;19.50;54.23
20930;BME280;21895;47.072;15.132;2023-08-08T06:58:33;97005.00;;;19.57;53.90
20930;BME280;21895;47.072;15.132;2023-08-08T07:01:00;97005.00;;;19.88;52.91
20930;BME280;21895;47.072;15.132;2023-08-08T07:03:27;97010.00;;;20.10;52.51
20930;BME280;21895;47.072;15.132;2023-08-08T07:05:53;97005.00;;;20.19;52.16
20930;BME280;21895;47.072;15.132;2023-08-08T07:08:20;97016.00;;;20.17;52.33
20930;BME280;21895;47.072;15.132;2023-08-08T07:10:47;97012.00;;;20.30;52.98
20930;BME280;21895;47.072;15.132;2023-08-08T07:13:13;97000.00;;;20.31;52.36
20930;BME280;21895;47.072;15.132;2023-08-08T07:15:41;97001.00;;;20.27;53.63
20930;BME280;21895;47.072;15.132;2023-08-08T07:18:08;97004.00;;;20.63;54.17
20930;BME280;21895;47.072;15.132;2023-08-08T07:20:35;96998.00;;;20.93;54.54
20930;BME280;21895;47.072;15.132;2023-08-08T07:23:02;96994.00;;;21.35;52.68
20930;BME280;21895;47.072;15.132;2023-08-08T07:25:29;96990.00;;;21.46;52.21
20930;BME280;21895;47.072;15.132;2023-08-08T07:27:55;96988.00;;;21.62;51.54
20930;BME280;21895;47.072;15.132;2023-08-08T07:30:22;96990.00;;;21.55;49.45
20930;BME280;21895;47.072;15.132;2023-08-08T07:32:49;96992.00;;;21.58;48.30
20930;BME280;21895;47.072;15.132;2023-08-08T07:35:16;96985.00;;;21.60;49.49
20930;BME280;21895;47.072;15.132;2023-08-08T07:37:43;96991.00;;;21.64;48.48
20930;BME280;21895;47.072;15.132;2023-08-08T07:40:20;96972.00;;;21.73;46.30
20930;BME280;21895;47.072;15.132;2023-08-08T07:42:49;96989.00;;;21.97;47.29
20930;BME280;21895;47.072;15.132;2023-08-08T07:45:16;96986.00;;;22.14;44.94
20930;BME280;21895;47.072;15.132;2023-08-08T07:47:43;96982.00;;;22.13;42.92
20930;BME280;21895;47.072;15.132;2023-08-08T07:50:10;96976.00;;;21.78;44.13
20930;BME280;21895;47.072;15.132;2023-08-08T07:52:38;96971.00;;;21.86;43.62
20930;BME280;21895;47.072;15.132;2023-08-08T07:55:06;96978.00;;;22.07;46.74
20930;BME280;21895;47.072;15.132;2023-08-08T07:57:33;96970.00;;;22.14;44.70
20930;BME280;21895;47.072;15.132;2023-08-08T08:00:04;96962.00;;;22.39;44.52
20930;BME280;21895;47.072;15.132;2023-08-08T08:02:44;96951.00;;;22.59;43.95
20930;BME280;21895;47.072;15.132;2023-08-08T08:05:12;96963.00;;;22.59;43.46
20930;BME280;21895;47.072;15.132;2023-08-08T08:07:40;96955.00;;;22.65;41.45
20930;BME280;21895;47.072;15.132;2023-08-08T08:10:10;96958.00;;;22.80;42.92
20930;BME280;21895;47.072;15.132;2023-08-08T08:12:41;96953.00;;;22.81;42.74
20930;BME280;21895;47.072;15.132;2023-08-08T08:15:09;96954.00;;;22.87;42.21
20930;BME280;21895;47.072;15.132;2023-08-08T08:17:35;96960.00;;;22.89;43.60
20930;BME280;21895;47.072;15.132;2023-08-08T08:20:03;96943.00;;;23.06;41.92
20930;BME280;21895;47.072;15.132;2023-08-08T08:22:37;96943.00;;;23.16;43.96
20930;BME280;21895;47.072;15.132;2023-08-08T08:25:05;96941.00;;;23.06;40.64
20930;BME280;21895;47.072;15.132;2023-08-08T08:27:35;96940.00;;;22.90;41.75
20930;BME280;21895;47.072;15.132;2023-08-08T08:30:02;96935.00;;;22.95;41.08
20930;BME280;21895;47.072;15.132;2023-08-08T08:32:34;96928.00;;;23.19;40.24
20930;BME280;21895;47.072;15.132;2023-08-08T08:35:03;96927.00;;;23.14;39.93
20930;BME280;21895;47.072;15.132;2023-08-08T08:37:33;96926.00;;;23.21;39.77
20930;BME280;21895;47.072;15.132;2023-08-08T08:40:00;96920.00;;;23.19;38.92
20930;BME280;21895;47.072;15.132;2023-08-08T08:42:28;96919.00;;;23.13;40.33
20930;BME280;21895;47.072;15.132;2023-08-08T08:44:59;96920.00;;;23.02;39.74
20930;BME280;21895;47.072;15.132;2023-08-08T08:47:28;96921.00;;;23.30;39.93
20930;BME280;21895;47.072;15.132;2023-08-08T08:49:57;96919.00;;;23.56;38.71
20930;BME280;21895;47.072;15.132;2023-08-08T08:52:24;96917.00;;;23.82;36.71
20930;BME280;21895;47.072;15.132;2023-08-08T08:54:52;96914.00;;;23.67;36.20
20930;BME280;21895;47.072;15.132;2023-08-08T08:57:23;96909.00;;;23.72;37.00
20930;BME280;21895;47.072;15.132;2023-08-08T08:59:51;96907.00;;;23.83;36.38
20930;BME280;21895;47.072;15.132;2023-08-08T09:02:18;96917.00;;;24.03;36.53
20930;BME280;21895;47.072;15.132;2023-08-08T09:04:46;96911.00;;;24.32;37.94
20930;BME280;21895;47.072;15.132;2023-08-08T09:07:14;96914.00;;;24.03;36.99
20930;BME280;21895;47.072;15.132;2023-08-08T09:09:45;96909.00;;;23.98;36.65
20930;BME280;21895;47.072;15.132;2023-08-08T09:12:12;96917.00;;;24.34;38.96
20930;BME280;21895;47.072;15.132;2023-08-08T09:14:43;96914.00;;;24.11;37.15
20930;BME280;21895;47.072;15.132;2023-08-08T09:17:13;96908.00;;;24.08;37.76
20930;BME280;21895;47.072;15.132;2023-08-08T09:19:43;96903.00;;;24.03;38.01
20930;BME280;21895;47.072;15.132;2023-08-08T09:22:12;96914.00;;;23.89;38.03
20930;BME280;21895;47.072;15.132;2023-08-08T09:24:40;96911.00;;;23.72;36.33
20930;BME280;21895;47.072;15.132;2023-08-08T09:27:08;96905.00;;;22.97;38.91
20930;BME280;21895;47.072;15.132;2023-08-08T09:29:36;96906.00;;;23.15;38.57
20930;BME280;21895;47.072;15.132;2023-08-08T09:32:07;96900.00;;;23.07;39.39
20930;BME280;21895;47.072;15.132;2023-08-08T09:34:34;96905.00;;;23.11;39.50
20930;BME280;21895;47.072;15.132;2023-08-08T09:37:01;96897.00;;;23.01;39.00
20930;BME280;21895;47.072;15.132;2023-08-08T09:39:29;96891.00;;;23.42;39.01
20930;BME280;21895;47.072;15.132;2023-08-08T09:41:56;96897.00;;;23.83;39.50
20930;BME280;21895;47.072;15.132;2023-08-08T09:44:24;96884.00;;;24.22;38.16
20930;BME280;21895;47.072;15.132;2023-08-08T09:46:53;96883.00;;;24.47;37.41
20930;BME280;21895;47.072;15.132;2023-08-08T09:49:22;96888.00;;;24.45;37.21
20930;BME280;21895;47.072;15.132;2023-08-08T09:51:52;96887.00;;;24.44;37.35
20930;BME280;21895;47.072;15.132;2023-08-08T09:54:20;96884.00;;;24.58;35.56
20930;BME280;21895;47.072;15.132;2023-08-08T09:56:50;96883.00;;;24.71;36.22
20930;BME280;21895;47.072;15.132;2023-08-08T09:59:17;96881.00;;;24.82;36.49
20930;BME280;21895;47.072;15.132;2023-08-08T10:01:46;96884.00;;;24.22;34.75
20930;BME280;21895;47.072;15.132;2023-08-08T10:04:14;96882.00;;;23.98;36.79
20930;BME280;21895;47.072;15.132;2023-08-08T10:06:41;96874.00;;;23.86;36.55
20930;BME280;21895;47.072;15.132;2023-08-08T10:09:08;96864.00;;;23.97;35.80
20930;BME280;21895;47.072;15.132;2023-08-08T10:11:35;96864.00;;;23.97;36.11
20930;BME280;21895;47.072;15.132;2023-08-08T10:14:03;96867.00;;;24.23;35.92
20930;BME280;21895;47.072;15.132;2023-08-08T10:16:33;96864.00;;;24.26;35.89
20930;BME280;21895;47.072;15.132;2023-08-08T10:19:03;96852.00;;;24.17;37.91
20930;BME280;21895;47.072;15.132;2023-08-08T10:21:35;96850.00;;;24.52;35.53
20930;BME280;21895;47.072;15.132;2023-08-08T10:24:09;96851.00;;;24.60;37.19
20930;BME280;21895;47.072;15.132;2023-08-08T10:26:54;96843.00;;;24.44;37.16
20930;BME280;21895;47.072;15.132;2023-08-08T10:29:21;96837.00;;;24.32;36.07
20930;BME280;21895;47.072;15.132;2023-08-08T10:32:05;96840.00;;;24.02;36.52
20930;BME280;21895;47.072;15.132;2023-08-08T10:34:46;96830.00;;;23.77;36.82
20930;BME280;21895;47.072;15.132;2023-08-08T10:37:15;96834.00;;;23.99;36.40
20930;BME280;21895;47.072;15.132;2023-08-08T10:39:59;96836.00;;;24.15;35.02
20930;BME280;21895;47.072;15.132;2023-08-08T10:42:28;96829.00;;;23.83;36.73
20930;BME280;21895;47.072;15.132;2023-08-08T10:45:00;96831.00;;;23.36;36.47
20930;BME280;21895;47.072;15.132;2023-08-08T10:47:34;96828.00;;;23.16;36.39
20930;BME280;21895;47.072;15.132;2023-08-08T10:50:23;96830.00;;;23.25;37.20
20930;BME280;21895;47.072;15.132;2023-08-08T10:52:58;96817.00;;;23.90;36.81
20930;BME280;21895;47.072;15.132;2023-08-08T10:55:31;96818.00;;;24.32;35.66
20930;BME280;21895;47.072;15.132;2023-08-08T10:58:19;96819.00;;;24.15;37.63
20930;BME280;21895;47.072;15.132;2023-08-08T11:00:46;96816.00;;;24.22;35.08
20930;BME280;21895;47.072;15.132;2023-08-08T11:03:15;96809.00;;;24.17;36.79
20930;BME280;21895;47.072;15.132;2023-08-08T11:05:41;96808.00;;;24.25;36.67
20930;BME280;21895;47.072;15.132;2023-08-08T11:08:11;96808.00;;;24.46;37.54
20930;BME280;21895;47.072;15.132;2023-08-08T11:10:40;96806.00;;;24.40;36.51
20930;BME280;21895;47.072;15.132;2023-08-08T11:13:08;96800.00;;;24.08;36.23
20930;BME280;21895;47.072;15.132;2023-08-08T11:15:36;96803.00;;;24.13;36.46
20930;BME280;21895;47.072;15.132;2023-08-08T11:18:03;96797.00;;;24.08;35.44
20930;BME280;21895;47.072;15.132;2023-08-08T11:20:33;96791.00;;;24.10;36.40
20930;BME280;21895;47.072;15.132;2023-08-08T11:23:01;96791.00;;;24.15;37.19
20930;BME280;21895;47.072;15.132;2023-08-08T11:25:30;96790.00;;;24.47;36.46
20930;BME280;21895;47.072;15.132;2023-08-08T11:27:58;96791.00;;;24.63;36.80
20930;BME280;21895;47.072;15.132;2023-08-08T11:30:37;96783.00;;;24.75;36.09
20930;BME280;21895;47.072;15.132;2023-08-08T11:33:04;96781.00;;;24.41;35.65
20930;BME280;21895;47.072;15.132;2023-08-08T11:35:34;96776.00;;;24.38;36.31
20930;BME280;21895;47.072;15.132;2023-08-08T11:38:03;96779.00;;;24.73;36.21
20930;BME280;21895;47.072;15.132;2023-08-08T11:40:31;96771.00;;;25.04;37.32
20930;BME280;21895;47.072;15.132;2023-08-08T11:42:59;96772.00;;;24.94;38.32
20930;BME280;21895;47.072;15.132;2023-08-08T11:45:26;96771.00;;;24.52;37.05
20930;BME280;21895;47.072;15.132;2023-08-08T11:47:55;96775.00;;;24.29;37.03
20930;BME280;21895;47.072;15.132;2023-08-08T11:50:23;96770.00;;;24.24;38.84
20930;BME280;21895;47.072;15.132;2023-08-08T11:52:53;96761.00;;;24.65;37.64
20930;BME280;21895;47.072;15.132;2023-08-08T11:55:20;96763.00;;;24.92;37.95
20930;BME280;21895;47.072;15.132;2023-08-08T11:57:49;96760.00;;;25.11;35.57
20930;BME280;21895;47.072;15.132;2023-08-08T12:00:16;96756.00;;;25.26;36.17
20930;BME280;21895;47.072;15.132;2023-08-08T12:02:44;96754.00;;;25.37;35.24
20930;BME280;21895;47.072;15.132;2023-08-08T12:05:13;96752.00;;;25.27;36.64
20930;BME280;21895;47.072;15.132;2023-08-08T12:07:43;96743.00;;;25.49;35.53
20930;BME280;21895;47.072;15.132;2023-08-08T12:10:20;96746.00;;;25.61;35.57
20930;BME280;21895;47.072;15.132;2023-08-08T12:12:56;96742.00;;;25.55;34.07
20930;BME280;21895;47.072;15.132;2023-08-08T12:15:36;96738.00;;;25.56;36.50
20930;BME280;21895;47.072;15.132;2023-08-08T12:18:03;96737.00;;;25.92;35.99
20930;BME280;21895;47.072;15.132;2023-08-08T12:20:31;96739.00;;;25.95;35.84
20930;BME280;21895;47.072;15.132;2023-08-08T12:22:59;96732.00;;;25.73;35.15
20930;BME280;21895;47.072;15.132;2023-08-08T12:25:26;96732.00;;;25.61;35.42
20930;BME280;21895;47.072;15.132;2023-08-08T12:27:52;96735.00;;;25.82;35.34
20930;BME280;21895;47.072;15.132;2023-08-08T12:30:19;96732.00;;;25.52;36.61
20930;BME280;21895;47.072;15.132;2023-08-08T12:32:46;96726.00;;;25.62;34.25
20930;BME280;21895;47.072;15.132;2023-08-08T12:35:12;96723.00;;;25.54;36.07
20930;BME280;21895;47.072;15.132;2023-08-08T12:37:39;96721.00;;;25.54;36.85
20930;BME280;21895;47.072;15.132;2023-08-08T12:40:07;96722.00;;;25.27;36.03
20930;BME280;21895;47.072;15.132;2023-08-08T12:42:34;96732.00;;;25.17;37.06
20930;BME280;21895;47.072;15.132;2023-08-08T12:45:01;96726.00;;;24.79;37.21
20930;BME280;21895;47.072;15.132;2023-08-08T12:47:27;96727.00;;;24.85;37.46
20930;BME280;21895;47.072;15.132;2023-08-08T12:49:55;96716.00;;;25.01;37.45
20930;BME280;21895;47.072;15.132;2023-08-08T12:52:22;96712.00;;;24.72;37.38
20930;BME280;21895;47.072;15.132;2023-08-08T12:54:51;96719.00;;;24.47;37.70
20930;BME280;21895;47.072;15.132;2023-08-08T12:57:18;96707.00;;;24.65;37.53